»·PEaware :: CGUZC L88-KSBP

CGUZC :: L88-KSBP

FLIGHT INFORMATION

Flight Status: Arrived
Operator: Unknown
More flights by this operator :: More flights under this callsign
Pilot: Jeremie B. (23254)
Aircraft: CESSNA 172 SKYHAWK
(C172)
More flights by this aircraft type
Origin: L88 New Cuyama
United States
Destination: KSBP San Luis Co Regl
United States
More flights between these airports :: More routes between these airports
Route:
File this flight plan on PilotEdge
Remarks: cat-2
Altitude:
(Current/Filed)
6,500ft
Speed:
(Current/Filed)
95kts
Departed: 02-Feb-19 04:41 PM
Arrived: 02-Feb-19 05:15 PM
Distance/Time
Traveled:
50nm/0:34
Distance/Time
To Go:
Arrived

Flight Plot

Page will automatically refresh every two minutes.


Map Options




Map Legend


Flown Route
Filed Route
Departure Airport
Arrival Airport
Navaid (VOR, NDB)
Fix

Horizontal Profiles

Position Reports

Time Latitude Longitude Heading Altitude Ground
Speed
02-Feb-19 16:29 34.942853 -119.690285 204 2156ft 0kts
02-Feb-19 16:30 34.942853 -119.690285 204 2156ft 0kts
02-Feb-19 16:31 34.942847 -119.690289 203 2156ft 0kts
02-Feb-19 16:32 34.942847 -119.690289 203 2156ft 0kts
02-Feb-19 16:33 34.942847 -119.690289 203 2156ft 0kts
02-Feb-19 16:34 34.942845 -119.690290 203 2156ft 0kts
02-Feb-19 16:35 34.942845 -119.690290 203 2156ft 0kts
02-Feb-19 16:36 34.942951 -119.691016 141 2154ft 0kts
02-Feb-19 16:37 34.942951 -119.691016 142 2154ft 0kts
02-Feb-19 16:38 34.942951 -119.691016 142 2154ft 0kts
02-Feb-19 16:39 34.942730 -119.691137 210 2154ft 8kts
02-Feb-19 16:40 34.938408 -119.681558 115 2349ft 70kts
02-Feb-19 16:41 34.933594 -119.687968 308 3112ft 77kts
02-Feb-19 16:42 34.943883 -119.710645 300 3839ft 78kts
02-Feb-19 16:43 34.955043 -119.733401 297 4525ft 80kts
02-Feb-19 16:44 34.965509 -119.757185 285 5183ft 80kts
02-Feb-19 16:45 34.969382 -119.783850 274 5805ft 80kts
02-Feb-19 16:46 34.975848 -119.810060 287 6392ft 81kts
02-Feb-19 16:47 34.985247 -119.840919 288 6423ft 100kts
02-Feb-19 16:48 34.996770 -119.872616 295 6488ft 104kts
02-Feb-19 16:49 35.010167 -119.904236 293 6474ft 106kts
02-Feb-19 16:50 35.021823 -119.937058 295 6379ft 102kts
02-Feb-19 16:51 35.032137 -119.970032 292 6318ft 103kts
02-Feb-19 16:52 35.042836 -120.002645 291 6123ft 105kts
02-Feb-19 16:53 35.054591 -120.035330 304 5826ft 106kts
02-Feb-19 16:54 35.064434 -120.068504 287 5608ft 104kts
02-Feb-19 16:55 35.074439 -120.101606 291 5383ft 103kts
02-Feb-19 16:56 35.086234 -120.135376 292 5136ft 111kts
02-Feb-19 16:57 35.097450 -120.171171 285 4851ft 111kts
02-Feb-19 16:58 35.107456 -120.207397 290 4499ft 110kts
02-Feb-19 16:59 35.116477 -120.240762 284 4367ft 100kts
02-Feb-19 17:00 35.123462 -120.272166 283 4357ft 95kts
02-Feb-19 17:01 35.132587 -120.301800 294 4365ft 95kts
02-Feb-19 17:02 35.143679 -120.329726 293 4456ft 90kts
02-Feb-19 17:03 35.153039 -120.359477 287 4637ft 95kts
02-Feb-19 17:04 35.163457 -120.391278 289 4505ft 100kts
02-Feb-19 17:05 35.168498 -120.421817 264 4369ft 89kts
02-Feb-19 17:06 35.167591 -120.450760 284 4240ft 92kts
02-Feb-19 17:07 35.170779 -120.479406 284 3984ft 86kts
02-Feb-19 17:08 35.178403 -120.507292 292 3698ft 96kts
02-Feb-19 17:09 35.188570 -120.538152 283 3487ft 100kts
02-Feb-19 17:10 35.197574 -120.569619 304 2914ft 89kts
02-Feb-19 17:11 35.209735 -120.591979 305 2144ft 71kts
02-Feb-19 17:12 35.220593 -120.611579 306 1226ft 70kts
02-Feb-19 17:13 35.231398 -120.630696 306 294ft 65kts
02-Feb-19 17:14 35.237034 -120.640019 353 215ft 8kts
02-Feb-19 17:15 35.237524 -120.639923 6 215ft 0kts
02-Feb-19 17:16 35.237524 -120.639923 6 215ft 0kts
02-Feb-19 17:17 35.238333 -120.640661 322 215ft 14kts
02-Feb-19 17:18 35.238999 -120.641389 304 215ft 0kts
02-Feb-19 17:19 35.238999 -120.641389 304 215ft 0kts

Navigation Log

Ident Type
Flight plan parsing failed, navigation log unavailable